PWSweather.com
Personal Weather Stations
Station Observations
CAPEBRETON
Mira Road, Sydney, NS

Mira RoadSydney, NS

Lat: 46.1207292, Lon: -60.1594642

Elevation: 175

Station Type: LaCrosse Weather Pro Center 2800 Series

http://pwscapebreton.weebly.com/

Latest ConditionsUpdated 10:14:15 AM GMT-04:56 Sunday, Aug 2, 2015
Currently Today's Max Today's Min Today's Average
Temperature 79.7°F26.5°C 79.7°F26.5°C 59.9°F15.5°C 66.4°F19.1°C
Dew Point 62.7°F17.1°C 65.3°F18.5°C 40.2°F4.6°C 51.7°F10.9°C
Winds 0.9 mph N1.4 kmh N 2.3 mph W3.7 kmh W - 0.8 mph 1.3 kmh
Wind Gusts 3.1 mph5.0 kmh 4.0 mph6.4 kmh - -
Humidity 56% 74% 44% 60%
Pressure 29.71 in1006.1 mb 29.72 in1006.4 mb 29.64 in1003.7 mb -
Hour Temp Dew Point Humidity Winds Wind Gusts Pressure Precip Precip Rate Daily Precip Total
10:14 AM 79.7°F26.5°C 62.7°F17.1°C 56% 0.9 mph N1.4 kmh N 3.1 mph5.0 kmh 29.71 in1006.1 mb 0.00 in0.0 mm 0.00 in0.0 mm 0.00 in0.0 mm
10:09 AM 79.6°F26.4°C 62.5°F16.9°C 56% 1.8 mph W2.9 kmh W 3.1 mph5.0 kmh 29.72 in1006.4 mb 0.00 in0.0 mm 0.00 in0.0 mm 0.00 in0.0 mm
10:04 AM 79.6°F26.4°C 61.9°F16.6°C 55% 1.6 mph S2.6 kmh S 3.4 mph5.5 kmh 29.71 in1006.1 mb 0.00 in0.0 mm 0.00 in0.0 mm 0.00 in0.0 mm
09:59 AM 79.7°F26.5°C 62.7°F17.1°C 56% 1.9 mph SW3.1 kmh SW 3.4 mph5.5 kmh 29.71 in1006.1 mb 0.00 in0.0 mm 0.00 in0.0 mm 0.00 in0.0 mm
09:54 AM 79.6°F26.4°C 63.6°F17.6°C 58% 1.3 mph WNW2.1 kmh WNW 3.1 mph5.0 kmh 29.71 in1006.1 mb 0.00 in0.0 mm 0.00 in0.0 mm 0.00 in0.0 mm
09:49 AM 78.8°F26.0°C 62.8°F17.1°C 58% 0.8 mph 1.3 kmh 2.9 mph4.7 kmh 29.71 in1006.1 mb 0.00 in0.0 mm 0.00 in0.0 mm 0.00 in0.0 mm
09:44 AM 78.7°F25.9°C 63.2°F17.3°C 59% 0.6 mph NE1.0 kmh NE 2.9 mph4.7 kmh 29.71 in1006.1 mb 0.00 in0.0 mm 0.00 in0.0 mm 0.00 in0.0 mm
09:39 AM 78.3°F25.7°C 61.8°F16.6°C 57% 1.3 mph SE2.1 kmh SE 2.9 mph4.7 kmh 29.71 in1006.1 mb 0.00 in0.0 mm 0.00 in0.0 mm 0.00 in0.0 mm
09:34 AM 78.1°F25.6°C 62.6°F17.0°C 59% 0.8 mph E1.3 kmh E 4.0 mph6.4 kmh 29.71 in1006.1 mb 0.00 in0.0 mm 0.00 in0.0 mm 0.00 in0.0 mm
09:29 AM 78.1°F25.6°C 62.6°F17.0°C 59% 0.8 mph SSW1.3 kmh SSW 4.0 mph6.4 kmh 29.71 in1006.1 mb 0.00 in0.0 mm 0.00 in0.0 mm 0.00 in0.0 mm
09:24 AM 78.1°F25.6°C 63.2°F17.3°C 60% 0.7 mph N1.1 kmh N 1.6 mph2.6 kmh 29.71 in1006.1 mb 0.00 in0.0 mm 0.00 in0.0 mm 0.00 in0.0 mm
09:19 AM 77.8°F25.4°C 63.3°F17.4°C 61% 0.3 mph NNW0.5 kmh NNW 2.5 mph4.0 kmh 29.71 in1006.1 mb 0.00 in0.0 mm 0.00 in0.0 mm 0.00 in0.0 mm
09:14 AM 77.4°F25.2°C 63.4°F17.4°C 62% 1.1 mph WSW1.8 kmh WSW 3.8 mph6.1 kmh 29.71 in1006.1 mb 0.00 in0.0 mm 0.00 in0.0 mm 0.00 in0.0 mm
09:09 AM 77.0°F25.0°C 63.5°F17.5°C 63% 1.5 mph WSW2.4 kmh WSW 3.8 mph6.1 kmh 29.71 in1006.1 mb 0.00 in0.0 mm 0.00 in0.0 mm 0.00 in0.0 mm
09:04 AM 76.7°F24.8°C 62.6°F17.0°C 62% 0.8 mph 1.3 kmh 1.8 mph2.9 kmh 29.71 in1006.1 mb 0.00 in0.0 mm 0.00 in0.0 mm 0.00 in0.0 mm
08:59 AM 76.9°F24.9°C 62.4°F16.9°C 61% 1.4 mph NE2.3 kmh NE 1.8 mph2.9 kmh 29.71 in1006.1 mb 0.00 in0.0 mm 0.00 in0.0 mm 0.00 in0.0 mm
08:54 AM 76.9°F24.9°C 64.2°F17.9°C 65% 0.6 mph NE1.0 kmh NE 2.0 mph3.2 kmh 29.71 in1006.1 mb 0.00 in0.0 mm 0.00 in0.0 mm 0.00 in0.0 mm
08:49 AM 76.3°F24.6°C 64.1°F17.8°C 66% 0.9 mph N1.4 kmh N 2.0 mph3.2 kmh 29.71 in1006.1 mb 0.00 in0.0 mm 0.00 in0.0 mm 0.00 in0.0 mm
08:44 AM 76.3°F24.6°C 64.1°F17.8°C 66% 1.4 mph NNW2.3 kmh NNW 3.1 mph5.0 kmh 29.70 in1005.8 mb 0.00 in0.0 mm 0.00 in0.0 mm 0.00 in0.0 mm
08:39 AM 76.3°F24.6°C 64.1°F17.8°C 66% 1.1 mph SE1.8 kmh SE 3.1 mph5.0 kmh 29.70 in1005.8 mb 0.00 in0.0 mm 0.00 in0.0 mm 0.00 in0.0 mm
08:33 AM 76.1°F24.5°C 65.3°F18.5°C 69% 0.7 mph S1.1 kmh S 1.8 mph2.9 kmh 29.71 in1006.1 mb 0.00 in0.0 mm 0.00 in0.0 mm 0.00 in0.0 mm
08:28 AM 75.4°F24.1°C 65.3°F18.5°C 71% 0.5 mph SSW0.8 kmh SSW 2.7 mph4.3 kmh 29.70 in1005.8 mb 0.00 in0.0 mm 0.00 in0.0 mm 0.00 in0.0 mm
08:23 AM 75.1°F23.9°C 65.1°F18.4°C 71% 1.2 mph WSW1.9 kmh WSW 2.7 mph4.3 kmh 29.70 in1005.8 mb 0.00 in0.0 mm 0.00 in0.0 mm 0.00 in0.0 mm
08:18 AM 74.7°F23.7°C 65.1°F18.4°C 72% 0.6 mph ESE1.0 kmh ESE 2.7 mph4.3 kmh 29.70 in1005.8 mb 0.00 in0.0 mm 0.00 in0.0 mm 0.00 in0.0 mm
08:13 AM 74.2°F23.4°C 65.0°F18.3°C 73% 1.7 mph SW2.7 kmh SW 2.9 mph4.7 kmh 29.70 in1005.8 mb 0.00 in0.0 mm 0.00 in0.0 mm 0.00 in0.0 mm
08:08 AM 73.6°F23.1°C 64.4°F18.0°C 73% 1.8 mph WSW2.9 kmh WSW 2.9 mph4.7 kmh 29.70 in1005.8 mb 0.00 in0.0 mm 0.00 in0.0 mm 0.00 in0.0 mm
08:03 AM 73.1°F22.8°C 64.4°F18.0°C 74% 0.8 mph W1.3 kmh W 2.5 mph4.0 kmh 29.70 in1005.8 mb 0.00 in0.0 mm 0.00 in0.0 mm 0.00 in0.0 mm
07:58 AM 72.7°F22.6°C 64.0°F17.8°C 74% 1.0 mph W1.6 kmh W 2.5 mph4.0 kmh 29.69 in1005.4 mb 0.00 in0.0 mm 0.00 in0.0 mm 0.00 in0.0 mm
07:53 AM 72.2°F22.3°C 63.5°F17.5°C 74% 1.3 mph W2.1 kmh W 2.7 mph4.3 kmh 29.69 in1005.4 mb 0.00 in0.0 mm 0.00 in0.0 mm 0.00 in0.0 mm
07:48 AM 71.6°F22.0°C 62.9°F17.2°C 74% 1.5 mph WSW2.4 kmh WSW 2.7 mph4.3 kmh 29.69 in1005.4 mb 0.00 in0.0 mm 0.00 in0.0 mm 0.00 in0.0 mm
07:43 AM 70.9°F21.6°C 62.2°F16.8°C 74% 1.5 mph W2.4 kmh W 2.5 mph4.0 kmh 29.69 in1005.4 mb 0.00 in0.0 mm 0.00 in0.0 mm 0.00 in0.0 mm
07:38 AM 69.1°F20.6°C 60.0°F15.6°C 73% 1.3 mph W2.1 kmh W 2.2 mph3.5 kmh 29.69 in1005.4 mb 0.00 in0.0 mm 0.00 in0.0 mm 0.00 in0.0 mm
07:33 AM 68.9°F20.5°C 60.3°F15.7°C 74% 1.4 mph W2.3 kmh W 2.2 mph3.5 kmh 29.69 in1005.4 mb 0.00 in0.0 mm 0.00 in0.0 mm 0.00 in0.0 mm
07:28 AM 68.6°F20.3°C 59.9°F15.5°C 74% 0.5 mph S0.8 kmh S 1.8 mph2.9 kmh 29.68 in1005.1 mb 0.00 in0.0 mm 0.00 in0.0 mm 0.00 in0.0 mm
07:23 AM 68.2°F20.1°C 59.7°F15.4°C 74% 0.6 mph S1.0 kmh S 1.8 mph2.9 kmh 29.69 in1005.4 mb 0.00 in0.0 mm 0.00 in0.0 mm 0.00 in0.0 mm
07:18 AM 68.0°F20.0°C 59.5°F15.3°C 74% 1.1 mph SW1.8 kmh SW 1.8 mph2.9 kmh 29.69 in1005.4 mb 0.00 in0.0 mm 0.00 in0.0 mm 0.00 in0.0 mm
07:13 AM 67.9°F19.9°C 59.3°F15.2°C 74% 0.8 mph SE1.3 kmh SE 2.2 mph3.5 kmh 29.68 in1005.1 mb 0.00 in0.0 mm 0.00 in0.0 mm 0.00 in0.0 mm
07:08 AM 67.7°F19.8°C 59.1°F15.1°C 74% 1.1 mph NNE1.8 kmh NNE 2.2 mph3.5 kmh 29.68 in1005.1 mb 0.00 in0.0 mm 0.00 in0.0 mm 0.00 in0.0 mm
07:03 AM 67.5°F19.7°C 59.0°F15.0°C 74% 1.8 mph W2.9 kmh W 4.0 mph6.4 kmh 29.68 in1005.1 mb 0.00 in0.0 mm 0.00 in0.0 mm 0.00 in0.0 mm
06:58 AM 67.5°F19.7°C 59.0°F15.0°C 74% 1.9 mph SW3.1 kmh SW 4.0 mph6.4 kmh 29.68 in1005.1 mb 0.00 in0.0 mm 0.00 in0.0 mm 0.00 in0.0 mm
06:53 AM 67.5°F19.7°C 57.8°F14.3°C 71% 0.8 mph W1.3 kmh W 2.0 mph3.2 kmh 29.68 in1005.1 mb 0.00 in0.0 mm 0.00 in0.0 mm 0.00 in0.0 mm
06:48 AM 66.8°F19.3°C 56.3°F13.5°C 69% 1.3 mph SW2.1 kmh SW 2.0 mph3.2 kmh 29.68 in1005.1 mb 0.00 in0.0 mm 0.00 in0.0 mm 0.00 in0.0 mm
06:43 AM 66.1°F18.9°C 54.4°F12.4°C 66% 1.0 mph WSW1.6 kmh WSW 2.5 mph4.0 kmh 29.67 in1004.7 mb 0.00 in0.0 mm 0.00 in0.0 mm 0.00 in0.0 mm
06:38 AM 65.0°F18.3°C 52.9°F11.6°C 65% 0.2 mph NNE0.3 kmh NNE 2.5 mph4.0 kmh 29.67 in1004.7 mb 0.00 in0.0 mm 0.00 in0.0 mm 0.00 in0.0 mm
06:33 AM 64.4°F18.0°C 52.4°F11.3°C 65% 1.6 mph W2.6 kmh W 3.1 mph5.0 kmh 29.67 in1004.7 mb 0.00 in0.0 mm 0.00 in0.0 mm 0.00 in0.0 mm
06:28 AM 64.3°F17.9°C 52.2°F11.2°C 65% 1.8 mph WSW2.9 kmh WSW 3.1 mph5.0 kmh 29.67 in1004.7 mb 0.00 in0.0 mm 0.00 in0.0 mm 0.00 in0.0 mm
06:23 AM 64.1°F17.8°C 52.0°F11.1°C 65% 1.2 mph NW1.9 kmh NW 2.7 mph4.3 kmh 29.67 in1004.7 mb 0.00 in0.0 mm 0.00 in0.0 mm 0.00 in0.0 mm
06:18 AM 63.7°F17.6°C 51.7°F10.9°C 65% 2.3 mph W3.7 kmh W 2.7 mph4.3 kmh 29.66 in1004.4 mb 0.00 in0.0 mm 0.00 in0.0 mm 0.00 in0.0 mm
06:13 AM 63.5°F17.5°C 51.6°F10.9°C 65% 0.8 mph NW1.3 kmh NW 1.3 mph2.1 kmh 29.66 in1004.4 mb 0.00 in0.0 mm 0.00 in0.0 mm 0.00 in0.0 mm
06:08 AM 63.4°F17.4°C 51.0°F10.6°C 64% 0.2 mph WNW0.3 kmh WNW 1.3 mph2.1 kmh 29.66 in1004.4 mb 0.00 in0.0 mm 0.00 in0.0 mm 0.00 in0.0 mm
06:03 AM 63.0°F17.2°C 50.2°F10.1°C 63% 1.3 mph WSW2.1 kmh WSW 1.3 mph2.1 kmh 29.66 in1004.4 mb 0.00 in0.0 mm 0.00 in0.0 mm 0.00 in0.0 mm
05:58 AM 62.8°F17.1°C 49.6°F9.8°C 62% 0.7 mph WSW1.1 kmh WSW 1.8 mph2.9 kmh 29.66 in1004.4 mb 0.00 in0.0 mm 0.00 in0.0 mm 0.00 in0.0 mm
05:53 AM 62.8°F17.1°C 49.6°F9.8°C 62% 1.4 mph SW2.3 kmh SW 1.8 mph2.9 kmh 29.65 in1004.1 mb 0.00 in0.0 mm 0.00 in0.0 mm 0.00 in0.0 mm
05:48 AM 62.5°F16.9°C 49.2°F9.6°C 62% 0.5 mph SE0.8 kmh SE 1.8 mph2.9 kmh 29.66 in1004.4 mb 0.00 in0.0 mm 0.00 in0.0 mm 0.00 in0.0 mm
05:43 AM 62.3°F16.8°C 49.2°F9.6°C 62% 1.0 mph N1.6 kmh N 1.8 mph2.9 kmh 29.65 in1004.1 mb 0.00 in0.0 mm 0.00 in0.0 mm 0.00 in0.0 mm
05:38 AM 62.3°F16.8°C 49.2°F9.6°C 62% 1.0 mph WSW1.6 kmh WSW 1.8 mph2.9 kmh 29.65 in1004.1 mb 0.00 in0.0 mm 0.00 in0.0 mm 0.00 in0.0 mm
05:33 AM 62.3°F16.8°C 49.2°F9.6°C 62% 0.7 mph S1.1 kmh S 1.8 mph2.9 kmh 29.65 in1004.1 mb 0.00 in0.0 mm 0.00 in0.0 mm 0.00 in0.0 mm
05:28 AM 62.1°F16.7°C 49.0°F9.4°C 62% 1.2 mph NNW1.9 kmh NNW 1.8 mph2.9 kmh 29.65 in1004.1 mb 0.00 in0.0 mm 0.00 in0.0 mm 0.00 in0.0 mm
05:23 AM 61.9°F16.6°C 48.8°F9.3°C 62% 1.3 mph W2.1 kmh W 2.5 mph4.0 kmh 29.65 in1004.1 mb 0.00 in0.0 mm 0.00 in0.0 mm 0.00 in0.0 mm
05:18 AM 61.9°F16.6°C 48.8°F9.3°C 62% 1.1 mph SE1.8 kmh SE 2.5 mph4.0 kmh 29.65 in1004.1 mb 0.00 in0.0 mm 0.00 in0.0 mm 0.00 in0.0 mm
05:13 AM 61.9°F16.6°C 48.8°F9.3°C 62% 0.9 mph NNW1.4 kmh NNW 1.3 mph2.1 kmh 29.65 in1004.1 mb 0.00 in0.0 mm 0.00 in0.0 mm 0.00 in0.0 mm
05:08 AM 61.9°F16.6°C 48.3°F9.1°C 61% 1.0 mph SE1.6 kmh SE 1.3 mph2.1 kmh 29.65 in1004.1 mb 0.00 in0.0 mm 0.00 in0.0 mm 0.00 in0.0 mm
05:03 AM 61.9°F16.6°C 48.3°F9.1°C 61% 0.4 mph SE0.6 kmh SE 1.1 mph1.8 kmh 29.65 in1004.1 mb 0.00 in0.0 mm 0.00 in0.0 mm 0.00 in0.0 mm
04:58 AM 61.9°F16.6°C 48.3°F9.1°C 61% 0.7 mph SSE1.1 kmh SSE 1.8 mph2.9 kmh 29.65 in1004.1 mb 0.00 in0.0 mm 0.00 in0.0 mm 0.00 in0.0 mm
04:53 AM 61.9°F16.6°C 48.0°F8.9°C 60% 0.9 mph NW1.4 kmh NW 2.2 mph3.5 kmh 29.65 in1004.1 mb 0.00 in0.0 mm 0.00 in0.0 mm 0.00 in0.0 mm
04:48 AM 61.9°F16.6°C 47.0°F8.3°C 58% 1.5 mph SE2.4 kmh SE 2.2 mph3.5 kmh 29.64 in1003.7 mb 0.00 in0.0 mm 0.00 in0.0 mm 0.00 in0.0 mm
04:43 AM 61.6°F16.4°C 46.6°F8.1°C 58% 0.9 mph SW1.4 kmh SW 1.8 mph2.9 kmh 29.64 in1003.7 mb 0.00 in0.0 mm 0.00 in0.0 mm 0.00 in0.0 mm
04:38 AM 61.6°F16.4°C 46.2°F7.9°C 57% 0.7 mph S1.1 kmh S 2.9 mph4.7 kmh 29.64 in1003.7 mb 0.00 in0.0 mm 0.00 in0.0 mm 0.00 in0.0 mm
04:33 AM 61.6°F16.4°C 46.6°F8.1°C 58% 0.7 mph W1.1 kmh W 2.9 mph4.7 kmh 29.64 in1003.7 mb 0.00 in0.0 mm 0.00 in0.0 mm 0.00 in0.0 mm
04:28 AM 61.6°F16.4°C 46.2°F7.9°C 57% 0.7 mph SSW1.1 kmh SSW 1.8 mph2.9 kmh 29.64 in1003.7 mb 0.00 in0.0 mm 0.00 in0.0 mm 0.00 in0.0 mm
04:23 AM 61.6°F16.4°C 45.2°F7.3°C 55% 0.8 mph NNW1.3 kmh NNW 2.0 mph3.2 kmh 29.64 in1003.7 mb 0.00 in0.0 mm 0.00 in0.0 mm 0.00 in0.0 mm
04:18 AM 61.6°F16.4°C 46.2°F7.9°C 57% 1.1 mph SW1.8 kmh SW 2.0 mph3.2 kmh 29.64 in1003.7 mb 0.00 in0.0 mm 0.00 in0.0 mm 0.00 in0.0 mm
04:13 AM 61.6°F16.4°C 46.6°F8.1°C 58% 0.8 mph SW1.3 kmh SW 1.6 mph2.6 kmh 29.64 in1003.7 mb 0.00 in0.0 mm 0.00 in0.0 mm 0.00 in0.0 mm
04:08 AM 61.6°F16.4°C 47.2°F8.4°C 59% 1.1 mph W1.8 kmh W 1.6 mph2.6 kmh 29.64 in1003.7 mb 0.00 in0.0 mm 0.00 in0.0 mm 0.00 in0.0 mm
04:03 AM 61.6°F16.4°C 47.6°F8.7°C 60% 0.3 mph N0.5 kmh N 1.1 mph1.8 kmh 29.64 in1003.7 mb 0.00 in0.0 mm 0.00 in0.0 mm 0.00 in0.0 mm
03:58 AM 61.6°F16.4°C 47.6°F8.7°C 60% 0.5 mph SSE0.8 kmh SSE 1.1 mph1.8 kmh 29.64 in1003.7 mb 0.00 in0.0 mm 0.00 in0.0 mm 0.00 in0.0 mm
03:53 AM 61.7°F16.5°C 47.8°F8.8°C 60% 0.3 mph SE0.5 kmh SE 2.0 mph3.2 kmh 29.64 in1003.7 mb 0.00 in0.0 mm 0.00 in0.0 mm 0.00 in0.0 mm
03:48 AM 61.9°F16.6°C 48.0°F8.9°C 60% 0.2 mph W0.3 kmh W 2.0 mph3.2 kmh 29.64 in1003.7 mb 0.00 in0.0 mm 0.00 in0.0 mm 0.00 in0.0 mm
03:43 AM 62.1°F16.7°C 48.2°F9.0°C 60% 1.3 mph W2.1 kmh W 2.0 mph3.2 kmh 29.64 in1003.7 mb 0.00 in0.0 mm 0.00 in0.0 mm 0.00 in0.0 mm
03:38 AM 62.3°F16.8°C 48.7°F9.3°C 61% Calm Calm 1.1 mph1.8 kmh 29.65 in1004.1 mb 0.00 in0.0 mm 0.00 in0.0 mm 0.00 in0.0 mm
03:33 AM 62.3°F16.8°C 48.7°F9.3°C 61% 0.4 mph SSW0.6 kmh SSW 1.3 mph2.1 kmh 29.65 in1004.1 mb 0.00 in0.0 mm 0.00 in0.0 mm 0.00 in0.0 mm
03:28 AM 62.5°F16.9°C 48.9°F9.4°C 61% 0.7 mph SSE1.1 kmh SSE 1.3 mph2.1 kmh 29.65 in1004.1 mb 0.00 in0.0 mm 0.00 in0.0 mm 0.00 in0.0 mm
03:23 AM 62.6°F17.0°C 48.6°F9.2°C 60% 0.7 mph SE1.1 kmh SE 1.6 mph2.6 kmh 29.65 in1004.1 mb 0.00 in0.0 mm 0.00 in0.0 mm 0.00 in0.0 mm
03:18 AM 62.6°F17.0°C 48.6°F9.2°C 60% 0.8 mph SSE1.3 kmh SSE 1.6 mph2.6 kmh 29.65 in1004.1 mb 0.00 in0.0 mm 0.00 in0.0 mm 0.00 in0.0 mm
03:13 AM 63.0°F17.2°C 49.0°F9.4°C 60% Calm Calm 1.1 mph1.8 kmh 29.65 in1004.1 mb 0.00 in0.0 mm 0.00 in0.0 mm 0.00 in0.0 mm
03:08 AM 63.0°F17.2°C 49.0°F9.4°C 60% 0.5 mph SSE0.8 kmh SSE 1.8 mph2.9 kmh 29.65 in1004.1 mb 0.00 in0.0 mm 0.00 in0.0 mm 0.00 in0.0 mm
03:03 AM 63.0°F17.2°C 48.4°F9.1°C 59% 1.8 mph SSE2.9 kmh SSE 1.8 mph2.9 kmh 29.65 in1004.1 mb 0.00 in0.0 mm 0.00 in0.0 mm 0.00 in0.0 mm
02:58 AM 63.2°F17.3°C 48.2°F9.0°C 58% 0.9 mph SW1.4 kmh SW 1.8 mph2.9 kmh 29.65 in1004.1 mb 0.00 in0.0 mm 0.00 in0.0 mm 0.00 in0.0 mm
02:53 AM 63.2°F17.3°C 47.6°F8.7°C 57% 0.9 mph NW1.4 kmh NW 1.3 mph2.1 kmh 29.65 in1004.1 mb 0.00 in0.0 mm 0.00 in0.0 mm 0.00 in0.0 mm
02:48 AM 63.2°F17.3°C 47.2°F8.4°C 56% 0.9 mph SW1.4 kmh SW 2.5 mph4.0 kmh 29.65 in1004.1 mb 0.00 in0.0 mm 0.00 in0.0 mm 0.00 in0.0 mm
02:43 AM 63.2°F17.3°C 46.6°F8.1°C 55% 1.5 mph S2.4 kmh S 2.5 mph4.0 kmh 29.65 in1004.1 mb 0.00 in0.0 mm 0.00 in0.0 mm 0.00 in0.0 mm
02:38 AM 63.0°F17.2°C 45.6°F7.6°C 53% 1.6 mph WSW2.6 kmh WSW 2.0 mph3.2 kmh 29.65 in1004.1 mb 0.00 in0.0 mm 0.00 in0.0 mm 0.00 in0.0 mm
02:33 AM 63.0°F17.2°C 45.6°F7.6°C 53% 1.0 mph SSE1.6 kmh SSE 1.8 mph2.9 kmh 29.65 in1004.1 mb 0.00 in0.0 mm 0.00 in0.0 mm 0.00 in0.0 mm
02:28 AM 63.0°F17.2°C 44.6°F7.0°C 51% 0.4 mph E0.6 kmh E 1.8 mph2.9 kmh 29.65 in1004.1 mb 0.00 in0.0 mm 0.00 in0.0 mm 0.00 in0.0 mm
02:23 AM 63.0°F17.2°C 44.6°F7.0°C 51% 1.1 mph SE1.8 kmh SE 1.8 mph2.9 kmh 29.65 in1004.1 mb 0.00 in0.0 mm 0.00 in0.0 mm 0.00 in0.0 mm
02:18 AM 62.8°F17.1°C 43.9°F6.6°C 50% 1.0 mph SW1.6 kmh SW 1.8 mph2.9 kmh 29.65 in1004.1 mb 0.00 in0.0 mm 0.00 in0.0 mm 0.00 in0.0 mm
02:13 AM 62.8°F17.1°C 43.9°F6.6°C 50% Calm Calm -- 29.65 in1004.1 mb 0.00 in0.0 mm 0.00 in0.0 mm 0.00 in0.0 mm
02:08 AM 62.8°F17.1°C 43.3°F6.3°C 49% Calm Calm -- 29.65 in1004.1 mb 0.00 in0.0 mm 0.00 in0.0 mm 0.00 in0.0 mm
02:03 AM 62.8°F17.1°C 41.6°F5.3°C 46% Calm Calm -- 29.65 in1004.1 mb 0.00 in0.0 mm 0.00 in0.0 mm 0.00 in0.0 mm
01:58 AM 62.6°F17.0°C 40.9°F4.9°C 45% Calm Calm -- 29.65 in1004.1 mb 0.00 in0.0 mm 0.00 in0.0 mm 0.00 in0.0 mm
01:53 AM 62.5°F16.9°C 40.2°F4.6°C 44% Calm Calm -- 29.65 in1004.1 mb 0.00 in0.0 mm 0.00 in0.0 mm 0.00 in0.0 mm
01:48 AM 62.3°F16.8°C 41.1°F5.1°C 46% Calm Calm -- 29.65 in1004.1 mb 0.00 in0.0 mm 0.00 in0.0 mm 0.00 in0.0 mm
01:43 AM 62.3°F16.8°C 41.1°F5.1°C 46% Calm Calm -- 29.65 in1004.1 mb 0.00 in0.0 mm 0.00 in0.0 mm 0.00 in0.0 mm
01:38 AM 62.3°F16.8°C 41.1°F5.1°C 46% Calm Calm -- 29.65 in1004.1 mb 0.00 in0.0 mm 0.00 in0.0 mm 0.00 in0.0 mm
01:33 AM 62.3°F16.8°C 40.5°F4.7°C 45% Calm Calm -- 29.65 in1004.1 mb 0.00 in0.0 mm 0.00 in0.0 mm 0.00 in0.0 mm
01:28 AM 62.3°F16.8°C 40.5°F4.7°C 45% Calm Calm -- 29.65 in1004.1 mb 0.00 in0.0 mm 0.00 in0.0 mm 0.00 in0.0 mm
01:23 AM 62.3°F16.8°C 40.5°F4.7°C 45% Calm Calm -- 29.65 in1004.1 mb 0.00 in0.0 mm 0.00 in0.0 mm 0.00 in0.0 mm
01:18 AM 62.1°F16.7°C 41.0°F5.0°C 46% Calm Calm -- 29.65 in1004.1 mb 0.00 in0.0 mm 0.00 in0.0 mm 0.00 in0.0 mm
01:13 AM 62.1°F16.7°C 41.0°F5.0°C 46% Calm Calm -- 29.65 in1004.1 mb 0.00 in0.0 mm 0.00 in0.0 mm 0.00 in0.0 mm
01:08 AM 61.9°F16.6°C 41.4°F5.2°C 47% Calm Calm -- 29.66 in1004.4 mb 0.00 in0.0 mm 0.00 in0.0 mm 0.00 in0.0 mm
01:03 AM 61.9°F16.6°C 41.4°F5.2°C 47% Calm Calm -- 29.66 in1004.4 mb 0.00 in0.0 mm 0.00 in0.0 mm 0.00 in0.0 mm
12:57 AM 61.9°F16.6°C 41.4°F5.2°C 47% Calm Calm -- 29.66 in1004.4 mb 0.00 in0.0 mm 0.00 in0.0 mm 0.00 in0.0 mm
12:52 AM 61.9°F16.6°C 41.4°F5.2°C 47% Calm Calm -- 29.67 in1004.7 mb 0.00 in0.0 mm 0.00 in0.0 mm 0.00 in0.0 mm
12:48 AM 61.7°F16.5°C 41.8°F5.4°C 48% Calm Calm -- 29.67 in1004.7 mb 0.00 in0.0 mm 0.00 in0.0 mm 0.00 in0.0 mm
12:42 AM 61.6°F16.4°C 42.2°F5.7°C 49% Calm Calm -- 29.66 in1004.4 mb 0.00 in0.0 mm 0.00 in0.0 mm 0.00 in0.0 mm
12:37 AM 61.4°F16.3°C 42.0°F5.6°C 49% Calm Calm -- 29.67 in1004.7 mb 0.00 in0.0 mm 0.00 in0.0 mm 0.00 in0.0 mm
12:32 AM 61.2°F16.2°C 41.9°F5.5°C 49% Calm Calm -- 29.67 in1004.7 mb 0.00 in0.0 mm 0.00 in0.0 mm 0.00 in0.0 mm
12:27 AM 60.8°F16.0°C 42.1°F5.6°C 50% Calm Calm -- 29.66 in1004.4 mb 0.00 in0.0 mm 0.00 in0.0 mm 0.00 in0.0 mm
12:22 AM 60.7°F15.9°C 42.9°F6.1°C 52% Calm Calm -- 29.66 in1004.4 mb 0.00 in0.0 mm 0.00 in0.0 mm 0.00 in0.0 mm
12:17 AM 60.1°F15.6°C 43.8°F6.6°C 55% Calm Calm -- 29.67 in1004.7 mb 0.00 in0.0 mm 0.00 in0.0 mm 0.00 in0.0 mm
12:12 AM 60.1°F15.6°C 43.8°F6.6°C 55% Calm Calm -- 29.66 in1004.4 mb 0.00 in0.0 mm 0.00 in0.0 mm 0.00 in0.0 mm
12:07 AM 60.1°F15.6°C 44.4°F6.9°C 56% Calm Calm -- 29.67 in1004.7 mb 0.00 in0.0 mm 0.00 in0.0 mm 0.00 in0.0 mm
12:02 AM 59.9°F15.5°C 43.7°F6.5°C 55% Calm Calm -- 29.67 in1004.7 mb 0.00 in0.0 mm 0.00 in0.0 mm 0.00 in0.0 mm